GMFO/OUD METAR and TAF weather

Enter ICAO airport designator
Station Type Date Time Source
GMFO METAR 2022/01/29 12:00 UTC NOAA

GMFO 291200Z 35003KT 270V070 CAVOK 17/02 Q1030 NOSIG


Station Type Date Time Source
GMFO Decoded METAR 2022/01/29 12:00 UTC NOAA

Oujda, Morocco (GMFO) 34-47N 001-56W 470M
Jan 29, 2022 - 07:00 AM EST / 2022.01.29 1200 UTC
Wind: from the N (350 degrees) at 3 MPH (3 KT) (direction variable):0
Visibility: greater than 7 mile(s):0
Temperature: 62 F (17 C)
Dew Point: 35 F (2 C)
Relative Humidity: 36%
Pressure (altimeter): 30.42 in. Hg (1030 hPa)
ob: GMFO 291200Z 35003KT 270V070 CAVOK 17/02 Q1030 NOSIG
cycle: 12

Station Type Date Time Source
GMFO TAF 2022/01/29 12:18 UTC NOAA

TAF GMFO 291100Z 2912/3018 04008KT CAVOK

Example: see airport list